Terminal Aerodrome Forecast
Issued by NWS Cleveland, OH

Home | Current Version | Previous Version | Text Only | Print | Product List | Glossary Off
Versions: 1 2 3 4 5 6 7 8 9 10 11 12 13 14 15 16 17 18 19

000
FTUS41 KCLE 291700 RRA
TAFERI
TAF
KERI 291746Z 2918/3018 29010KT P6SM SKC
     FM301000 21003KT P6SM SCT250
     FM301200 28005KT 6SM -SHRA SCT015 BKN040 OVC100
     FM301400 30006KT 5SM -SHRA BR SCT006 OVC015
     FM301600 30006KT 4SM -DZ BR OVC006=

USA.gov is the U.S. government's official web portal to all federal, state and local government web resources and services.